Time;durP1;ratioP1;P1;durP2;ratioP2;P2;SDS_P1;SDS_P2;PMS_P1;PMS_P2;Temp;Humidity;BMP_temperature;BMP_pressure;BME280_temperature;BME280_humidity;BME280_pressure;Samples;Min_cycle;Max_cycle;Signal;HPM_P1;HPM_P2
2024/01/23 00:00:46;;;;;;;;;1.00;1.00;;;;;-146.37;100.00;59337.28;4824737;29;45470;-82
2024/01/23 00:03:11;;;;;;;;;3.00;2.00;;;;;-146.37;100.00;59337.28;4824576;29;45447;-81
2024/01/23 00:05:37;;;;;;;;;2.33;2.33;;;;;-146.37;100.00;59337.28;4824473;29;45353;-81
2024/01/23 00:08:05;;;;;;;;;2.00;2.00;;;;;-146.37;100.00;59337.28;4826358;29;45452;-81
2024/01/23 00:10:30;;;;;;;;;3.33;2.00;;;;;-146.37;100.00;59337.28;4825504;29;45833;-81
2024/01/23 00:12:55;;;;;;;;;1.33;1.33;;;;;-146.37;100.00;59337.28;4824110;29;47354;-81
2024/01/23 00:15:21;;;;;;;;;4.00;3.00;;;;;-146.37;100.00;59337.28;4825593;29;45297;-80
2024/01/23 00:17:46;;;;;;;;;1.00;1.00;;;;;-146.37;100.00;59337.28;4825239;29;45542;-81
2024/01/23 00:20:12;;;;;;;;;2.00;2.00;;;;;-146.37;100.00;59337.28;4824653;29;45532;-81
2024/01/23 00:22:38;;;;;;;;;1.67;1.67;;;;;-146.37;100.00;59337.28;4823045;29;47358;-82
2024/01/23 00:25:04;;;;;;;;;4.00;3.00;;;;;-146.37;100.00;59337.28;4825005;29;45543;-80
2024/01/23 00:27:30;;;;;;;;;2.33;2.00;;;;;-146.37;100.00;59337.28;4811687;29;45885;-81
2024/01/23 00:29:56;;;;;;;;;4.00;4.00;;;;;-146.37;100.00;59337.28;4822729;29;45474;-82
2024/01/23 00:32:23;;;;;;;;;3.00;2.00;;;;;-146.37;100.00;59337.28;4824606;29;46510;-82
2024/01/23 00:34:49;;;;;;;;;1.33;1.33;;;;;-146.37;100.00;59337.28;4823797;29;45382;-82
2024/01/23 00:37:14;;;;;;;;;2.00;2.00;;;;;-146.37;100.00;59337.28;4823673;29;45433;-82
2024/01/23 00:39:40;;;;;;;;;3.00;2.33;;;;;-146.37;100.00;59337.28;4806616;29;45430;-82
2024/01/23 00:42:07;;;;;;;;;7.00;2.67;;;;;-146.37;100.00;59337.28;4824004;29;45821;-82
2024/01/23 00:44:32;;;;;;;;;3.67;1.00;;;;;-146.37;100.00;59337.28;4807617;29;45505;-82
2024/01/23 00:47:00;;;;;;;;;1.33;1.33;;;;;-146.37;100.00;59337.28;4807919;29;45588;-82
2024/01/23 00:49:25;;;;;;;;;1.00;1.00;;;;;-146.37;100.00;59337.28;4825028;29;45515;-82
2024/01/23 00:51:50;;;;;;;;;1.00;1.00;;;;;-146.37;100.00;59337.28;4823955;29;45409;-82
2024/01/23 00:57:37;;;;;;;;;6.33;2.00;;;;;-146.37;100.00;59337.28;4823314;29;45436;-81
2024/01/23 01:00:05;;;;;;;;;3.25;1.00;;;;;-146.37;100.00;59337.28;4823850;29;45428;-81
2024/01/23 01:02:31;;;;;;;;;1.00;1.00;;;;;-146.37;100.00;59337.28;4823711;29;45212;-81
2024/01/23 01:04:57;;;;;;;;;3.00;1.00;;;;;-146.37;100.00;59337.28;4823399;29;45729;-81
2024/01/23 01:07:22;;;;;;;;;1.50;1.50;;;;;-146.37;100.00;59337.28;4808316;29;44785;-81
2024/01/23 01:09:48;;;;;;;;;1.00;1.00;;;;;-146.37;100.00;59337.28;4822137;29;45366;-81
2024/01/23 01:12:13;;;;;;;;;3.00;1.00;;;;;-146.37;100.00;59337.28;4824179;29;46404;-81
2024/01/23 01:14:38;;;;;;;;;2.00;0.67;;;;;-146.37;100.00;59337.28;4809910;29;46131;-82
2024/01/23 01:17:04;;;;;;;;;5.00;2.33;;;;;-146.37;100.00;59337.28;4825141;29;44981;-81
2024/01/23 01:19:30;;;;;;;;;1.00;1.00;;;;;-146.37;100.00;59337.28;4825321;29;45425;-82
2024/01/23 01:21:55;;;;;;;;;6.00;2.00;;;;;-146.37;100.00;59337.28;4809666;29;48175;-81
2024/01/23 01:24:21;;;;;;;;;1.67;1.67;;;;;-146.37;100.00;59337.28;4826341;29;45452;-81
2024/01/23 01:26:46;;;;;;;;;3.67;1.67;;;;;-146.37;100.00;59337.28;4826876;29;45885;-81
2024/01/23 01:29:15;;;;;;;;;4.67;3.00;;;;;-146.37;100.00;59337.28;4825078;29;45623;-81
2024/01/23 01:31:40;;;;;;;;;2.67;2.00;;;;;-146.37;100.00;59337.28;4824833;29;47677;-82
2024/01/23 01:34:06;;;;;;;;;1.67;1.00;;;;;-146.37;100.00;59337.28;4809046;29;45594;-82
2024/01/23 01:36:32;;;;;;;;;3.67;1.00;;;;;-146.37;100.00;59337.28;4827208;29;45736;-81
2024/01/23 01:39:00;;;;;;;;;1.00;1.00;;;;;-146.37;100.00;59337.28;4825689;29;45389;-81
2024/01/23 01:41:27;;;;;;;;;7.33;3.33;;;;;-146.37;100.00;59337.28;4826238;29;46258;-81
2024/01/23 01:43:52;;;;;;;;;4.00;3.67;;;;;-146.37;100.00;59337.28;4826558;29;45557;-81
2024/01/23 01:46:21;;;;;;;;;3.00;3.00;;;;;-146.37;100.00;59337.28;4826771;29;45531;-81
2024/01/23 01:48:47;;;;;;;;;2.00;2.00;;;;;-146.37;100.00;59337.28;4810755;29;45522;-82
2024/01/23 01:51:14;;;;;;;;;3.00;2.00;;;;;-146.37;100.00;59337.28;4826088;29;46444;-81
2024/01/23 01:53:41;;;;;;;;;4.67;2.00;;;;;-146.37;100.00;59337.28;4825465;29;46252;-81
2024/01/23 01:56:08;;;;;;;;;4.33;1.00;;;;;-146.37;100.00;59337.28;4824251;29;45524;-81
2024/01/23 01:58:36;;;;;;;;;3.00;2.33;;;;;-146.37;100.00;59337.28;4822817;29;45808;-81
2024/01/23 02:01:01;;;;;;;;;2.33;2.33;;;;;-146.37;100.00;59337.28;4823430;29;47436;-81
2024/01/23 02:03:27;;;;;;;;;6.33;2.67;;;;;-146.37;100.00;59337.28;4821141;29;45438;-80
2024/01/23 02:05:53;;;;;;;;;3.33;2.00;;;;;-146.37;100.00;59337.28;4806896;29;45698;-83
2024/01/23 02:08:20;;;;;;;;;4.00;2.67;;;;;-146.37;100.00;59337.28;4822740;29;45568;-81
2024/01/23 02:10:48;;;;;;;;;3.33;1.00;;;;;-146.37;100.00;59337.28;4808108;29;45575;-82
2024/01/23 02:13:13;;;;;;;;;3.00;2.33;;;;;-146.37;100.00;59337.28;4821077;29;45521;-81
2024/01/23 02:15:38;;;;;;;;;3.67;2.00;;;;;-146.37;100.00;59337.28;4806549;29;46133;-81
2024/01/23 02:18:04;;;;;;;;;4.00;3.00;;;;;-146.37;100.00;59337.28;4820854;29;45438;-81
2024/01/23 02:20:30;;;;;;;;;1.00;1.00;;;;;-146.37;100.00;59337.28;4807343;29;45549;-81
2024/01/23 02:22:55;;;;;;;;;2.67;2.00;;;;;-146.37;100.00;59337.28;4820993;29;45662;-80
2024/01/23 02:25:20;;;;;;;;;2.00;2.00;;;;;-146.37;100.00;59337.28;4821719;29;45784;-82
2024/01/23 02:27:46;;;;;;;;;2.67;2.67;;;;;-146.37;100.00;59337.28;4802029;29;45439;-82
2024/01/23 02:30:12;;;;;;;;;3.67;2.00;;;;;-146.37;100.00;59337.28;4789688;29;45397;-82
2024/01/23 02:32:43;;;;;;;;;2.67;2.67;;;;;-146.37;100.00;59337.28;4790228;29;45389;-81
2024/01/23 02:35:08;;;;;;;;;4.67;1.33;;;;;-146.37;100.00;59337.28;4789340;29;45770;-81
2024/01/23 02:37:34;;;;;;;;;8.33;2.67;;;;;-146.37;100.00;59337.28;4788594;29;45472;-81
2024/01/23 02:39:59;;;;;;;;;7.33;4.00;;;;;-146.37;100.00;59337.28;4788358;29;45775;-82
2024/01/23 02:42:26;;;;;;;;;4.67;3.00;;;;;-146.37;100.00;59337.28;4786963;29;45487;-81
2024/01/23 02:44:51;;;;;;;;;5.67;3.33;;;;;-146.37;100.00;59337.28;4786884;29;45485;-81
2024/01/23 02:47:16;;;;;;;;;2.33;2.33;;;;;-146.37;100.00;59337.28;4786760;29;45371;-82
2024/01/23 02:49:42;;;;;;;;;3.00;2.00;;;;;-146.37;100.00;59337.28;4789362;29;45334;-82
2024/01/23 02:52:07;;;;;;;;;6.33;3.00;;;;;-146.37;100.00;59337.28;4788063;29;45383;-82
2024/01/23 02:54:40;;;;;;;;;3.00;2.00;;;;;-146.37;100.00;59337.28;4803563;29;45347;-82
2024/01/23 02:57:05;;;;;;;;;6.00;2.67;;;;;-146.37;100.00;59337.28;4804313;29;45587;-82
2024/01/23 02:59:30;;;;;;;;;3.67;2.00;;;;;-146.37;100.00;59337.28;4791184;29;45551;-82
2024/01/23 03:01:56;;;;;;;;;7.67;2.00;;;;;-146.37;100.00;59337.28;4789806;29;46149;-82
2024/01/23 03:04:21;;;;;;;;;3.33;2.67;;;;;-146.37;100.00;59337.28;4806134;29;45756;-82
2024/01/23 03:06:47;;;;;;;;;1.33;1.33;;;;;-146.37;100.00;59337.28;4794616;29;45694;-82
2024/01/23 03:09:13;;;;;;;;;6.33;4.00;;;;;-146.37;100.00;59337.28;4793645;29;45367;-82
2024/01/23 03:11:39;;;;;;;;;6.67;3.00;;;;;-146.37;100.00;59337.28;4794233;29;45352;-83
2024/01/23 03:14:05;;;;;;;;;2.33;2.33;;;;;-146.37;100.00;59337.28;4805454;29;45391;-82
2024/01/23 03:16:30;;;;;;;;;3.67;2.00;;;;;-146.37;100.00;59337.28;4806129;29;45403;-82
2024/01/23 03:18:57;;;;;;;;;3.67;2.00;;;;;-146.37;100.00;59337.28;4789969;29;47109;-82
2024/01/23 03:21:22;;;;;;;;;1.67;1.67;;;;;-146.37;100.00;59337.28;4789069;29;45837;-82
2024/01/23 03:23:48;;;;;;;;;3.67;1.00;;;;;-146.37;100.00;59337.28;4788061;29;45365;-82
2024/01/23 03:26:21;;;;;;;;;2.67;2.67;;;;;-146.37;100.00;59337.28;4787146;29;45428;-82
2024/01/23 03:28:47;;;;;;;;;5.00;2.67;;;;;-146.37;100.00;59337.28;4802147;29;47280;-82
2024/01/23 03:31:13;;;;;;;;;1.00;1.00;;;;;-146.37;100.00;59337.28;4788913;29;45552;-81
2024/01/23 03:33:38;;;;;;;;;8.00;4.00;;;;;-146.37;100.00;59337.28;4787846;29;45493;-81
2024/01/23 03:36:04;;;;;;;;;2.00;2.00;;;;;-146.37;100.00;59337.28;4789443;29;45582;-81
2024/01/23 03:38:29;;;;;;;;;2.00;2.00;;;;;-146.37;100.00;59337.28;4789460;29;47266;-82
2024/01/23 03:40:55;;;;;;;;;4.00;3.00;;;;;-146.37;100.00;59337.28;4791197;29;45374;-82
2024/01/23 03:43:22;;;;;;;;;2.00;2.00;;;;;-146.37;100.00;59337.28;4791359;29;45388;-82
2024/01/23 03:45:47;;;;;;;;;2.00;2.00;;;;;-146.37;100.00;59337.28;4805466;29;45501;-82
2024/01/23 03:48:13;;;;;;;;;2.67;1.67;;;;;-146.37;100.00;59337.28;4791588;29;46007;-81
2024/01/23 03:50:38;;;;;;;;;1.33;1.33;;;;;-146.37;100.00;59337.28;4791598;29;45439;-82
2024/01/23 03:53:03;;;;;;;;;2.00;2.00;;;;;-146.37;100.00;59337.28;4789938;29;45422;-81
2024/01/23 03:55:29;;;;;;;;;2.67;2.67;;;;;-146.37;100.00;59337.28;4790942;29;45352;-81
2024/01/23 03:57:54;;;;;;;;;7.00;7.00;;;;;-146.37;100.00;59337.28;4787207;29;47130;-82
2024/01/23 04:00:20;;;;;;;;;8.00;6.00;;;;;-146.37;100.00;59337.28;4804393;29;45562;-81
2024/01/23 04:02:45;;;;;;;;;5.33;2.33;;;;;-146.37;100.00;59337.28;4804991;29;45432;-81
2024/01/23 04:08:34;;;;;;;;;6.00;3.67;;;;;-146.37;100.00;59337.28;4791323;29;45316;-82
2024/01/23 04:10:59;;;;;;;;;2.00;2.00;;;;;-146.37;100.00;59337.28;4789983;29;45372;-81
2024/01/23 04:13:24;;;;;;;;;6.00;4.00;;;;;-146.37;100.00;59337.28;4792083;29;45960;-81
2024/01/23 04:15:50;;;;;;;;;8.33;5.33;;;;;-146.37;100.00;59337.28;4806548;29;45432;-82
2024/01/23 04:18:16;;;;;;;;;4.00;3.67;;;;;-146.37;100.00;59337.28;4791775;29;45379;-81
2024/01/23 04:24:42;;;;;;;;;7.67;5.33;;;;;-146.37;100.00;59337.28;4789807;29;45391;-82
2024/01/23 04:27:07;;;;;;;;;4.33;4.33;;;;;-146.37;100.00;59337.28;4793014;29;45497;-82
2024/01/23 04:29:33;;;;;;;;;3.00;3.00;;;;;-146.37;100.00;59337.28;4791922;29;46057;-82
2024/01/23 04:31:59;;;;;;;;;3.67;2.00;;;;;-146.37;100.00;59337.28;4789344;29;45411;-81
2024/01/23 04:34:24;;;;;;;;;3.00;2.67;;;;;-146.37;100.00;59337.28;4804658;29;45228;-80
2024/01/23 04:36:49;;;;;;;;;4.00;2.00;;;;;-146.37;100.00;59337.28;4790321;29;45765;-82
2024/01/23 04:39:16;;;;;;;;;5.33;3.00;;;;;-146.37;100.00;59337.28;4807264;29;46925;-81
2024/01/23 04:41:42;;;;;;;;;6.33;2.00;;;;;-146.37;100.00;59337.28;4808689;29;45449;-82
2024/01/23 04:44:07;;;;;;;;;9.67;6.67;;;;;-146.37;100.00;59337.28;4807564;29;45557;-82
2024/01/23 04:46:32;;;;;;;;;7.33;4.00;;;;;-146.37;100.00;59337.28;4807139;29;45440;-82
2024/01/23 04:48:58;;;;;;;;;9.00;3.67;;;;;-146.37;100.00;59337.28;4807216;29;45502;-82
2024/01/23 04:51:23;;;;;;;;;4.00;3.00;;;;;-146.37;100.00;59337.28;4808065;29;45854;-82
2024/01/23 04:53:52;;;;;;;;;2.33;2.33;;;;;-146.37;100.00;59337.28;4807669;29;45423;-82
2024/01/23 04:56:18;;;;;;;;;3.67;2.33;;;;;-146.37;100.00;59337.28;4806893;29;45458;-81
2024/01/23 04:58:43;;;;;;;;;5.67;3.00;;;;;-146.37;100.00;59337.28;4820269;29;47411;-82
2024/01/23 05:01:09;;;;;;;;;7.00;4.00;;;;;-146.37;100.00;59337.28;4790693;29;45292;-81
2024/01/23 05:03:34;;;;;;;;;3.33;2.33;;;;;-146.37;100.00;59337.28;4790189;29;45413;-81
2024/01/23 05:06:00;;;;;;;;;3.00;3.00;;;;;-146.37;100.00;59337.28;4801535;29;45473;-81
2024/01/23 05:08:25;;;;;;;;;2.67;2.67;;;;;-146.37;100.00;59337.28;4802109;29;47340;-81
2024/01/23 05:10:50;;;;;;;;;6.33;3.00;;;;;-146.37;100.00;59337.28;4788703;29;45479;-82
2024/01/23 05:13:16;;;;;;;;;5.33;3.33;;;;;-146.37;100.00;59337.28;4789163;29;45617;-82
2024/01/23 05:15:41;;;;;;;;;3.33;3.00;;;;;-146.37;100.00;59337.28;4789252;29;45409;-82
2024/01/23 05:18:07;;;;;;;;;4.67;3.33;;;;;-146.37;100.00;59337.28;4802719;29;48242;-82
2024/01/23 05:20:34;;;;;;;;;3.00;3.00;;;;;-146.37;100.00;59337.28;4788343;29;45512;-81
2024/01/23 05:23:01;;;;;;;;;7.33;3.00;;;;;-146.37;100.00;59337.28;4802365;29;45471;-82
2024/01/23 05:25:26;;;;;;;;;7.00;3.00;;;;;-146.37;100.00;59337.28;4789196;29;45298;-81
2024/01/23 05:27:52;;;;;;;;;6.00;3.00;;;;;-146.37;100.00;59337.28;4802770;29;47230;-81
2024/01/23 05:30:17;;;;;;;;;4.00;3.00;;;;;-146.37;100.00;59337.28;4802705;29;45408;-82
2024/01/23 05:32:44;;;;;;;;;4.00;1.33;;;;;-146.37;100.00;59337.28;4789069;29;45857;-81
2024/01/23 05:35:09;;;;;;;;;4.00;4.00;;;;;-146.37;100.00;59337.28;4787720;29;45618;-81
2024/01/23 05:37:36;;;;;;;;;5.33;3.67;;;;;-146.37;100.00;59337.28;4789781;29;46725;-81
2024/01/23 05:40:05;;;;;;;;;3.00;1.00;;;;;-146.37;100.00;59337.28;4788184;29;45939;-82
2024/01/23 05:42:30;;;;;;;;;2.00;2.00;;;;;-146.37;100.00;59337.28;4789345;29;45442;-82
2024/01/23 05:44:56;;;;;;;;;2.33;1.33;;;;;-146.37;100.00;59337.28;4803407;29;45833;-82
2024/01/23 05:47:22;;;;;;;;;4.67;2.33;;;;;-146.37;100.00;59337.28;4803573;29;47288;-81
2024/01/23 05:49:47;;;;;;;;;4.00;2.33;;;;;-146.37;100.00;59337.28;4804128;29;45448;-82
2024/01/23 05:52:14;;;;;;;;;3.33;1.00;;;;;-146.37;100.00;59337.28;4803360;29;45366;-80
2024/01/23 05:54:41;;;;;;;;;6.67;3.00;;;;;-146.37;100.00;59337.28;4790032;29;45443;-82
2024/01/23 05:57:14;;;;;;;;;7.00;2.33;;;;;-146.37;100.00;59337.28;4804394;29;48349;-81
2024/01/23 05:59:56;;;;;;;;;3.00;2.67;;;;;-146.37;100.00;59337.28;4795732;29;45874;-81
2024/01/23 06:02:21;;;;;;;;;5.00;4.33;;;;;-146.37;100.00;59337.28;4811160;29;45565;-81
2024/01/23 06:04:47;;;;;;;;;3.67;3.67;;;;;-146.37;100.00;59337.28;4809388;29;45305;-82
2024/01/23 06:07:12;;;;;;;;;1.67;1.67;;;;;-146.37;100.00;59337.28;4810532;29;45354;-82
2024/01/23 06:09:38;;;;;;;;;4.00;3.67;;;;;-146.37;100.00;59337.28;4812161;29;45810;-82
2024/01/23 06:12:05;;;;;;;;;6.00;3.00;;;;;-146.37;100.00;59337.28;4813159;29;45333;-82
2024/01/23 06:14:31;;;;;;;;;2.00;2.00;;;;;-146.37;100.00;59337.28;4812877;29;45466;-82
2024/01/23 06:16:59;;;;;;;;;4.67;1.67;;;;;-146.37;100.00;59337.28;4811945;29;47141;-82
2024/01/23 06:19:24;;;;;;;;;3.00;2.00;;;;;-146.37;100.00;59337.28;4808084;29;45664;-83
2024/01/23 06:21:50;;;;;;;;;6.67;5.33;;;;;-146.37;100.00;59337.28;4811715;29;45501;-82
2024/01/23 06:24:17;;;;;;;;;4.00;4.00;;;;;-146.37;100.00;59337.28;4811696;29;45426;-82
2024/01/23 06:26:42;;;;;;;;;3.00;3.00;;;;;-146.37;100.00;59337.28;4808052;29;47307;-82
2024/01/23 06:29:08;;;;;;;;;3.67;3.67;;;;;-146.37;100.00;59337.28;4793248;29;51854;-82
2024/01/23 06:31:33;;;;;;;;;6.33;3.33;;;;;-146.37;100.00;59337.28;4810969;29;45051;-82
2024/01/23 06:33:59;;;;;;;;;1.00;1.00;;;;;-146.37;100.00;59337.28;4809568;29;45449;-82
2024/01/23 06:36:24;;;;;;;;;5.33;5.33;;;;;-146.37;100.00;59337.28;4809810;29;45403;-82
2024/01/23 06:38:50;;;;;;;;;3.33;3.00;;;;;-146.37;100.00;59337.28;4829674;29;45734;-84
2024/01/23 06:41:23;;;;;;;;;6.33;4.00;;;;;-146.37;100.00;59337.28;4832859;29;44942;-83
2024/01/23 06:43:56;;;;;;;;;6.33;5.33;;;;;-146.37;100.00;59337.28;5003070;23;45004;-84
2024/01/23 06:46:21;;;;;;;;;5.00;3.00;;;;;-146.37;100.00;59337.28;4900995;23;45363;-83
2024/01/23 06:48:47;;;;;;;;;3.00;2.67;;;;;-146.37;100.00;59337.28;4883956;29;45365;-82
2024/01/23 06:51:12;;;;;;;;;5.33;3.00;;;;;-146.37;100.00;59337.28;4869972;29;44864;-81
2024/01/23 06:53:38;;;;;;;;;3.00;3.00;;;;;-146.37;100.00;59337.28;4887002;29;45442;-82
2024/01/23 06:56:05;;;;;;;;;6.67;3.67;;;;;-146.37;100.00;59337.28;4850231;29;47461;-82
2024/01/23 06:58:30;;;;;;;;;3.33;3.00;;;;;-146.37;100.00;59337.28;4849976;29;45352;-82
2024/01/23 07:00:55;;;;;;;;;4.00;4.00;;;;;-146.37;100.00;59337.28;4851066;29;45462;-81
2024/01/23 07:03:21;;;;;;;;;5.67;3.00;;;;;-146.37;100.00;59337.28;4852247;29;45014;-81
2024/01/23 07:05:46;;;;;;;;;3.67;2.00;;;;;-146.37;100.00;59337.28;4865043;29;48155;-82
2024/01/23 07:08:12;;;;;;;;;5.67;3.00;;;;;-146.37;100.00;59337.28;4866742;29;45985;-82
2024/01/23 07:10:38;;;;;;;;;3.00;3.00;;;;;-146.37;100.00;59337.28;4865888;29;45418;-82
2024/01/23 07:13:04;;;;;;;;;7.67;6.67;;;;;-146.37;100.00;59337.28;4849692;29;45534;-81
2024/01/23 07:15:29;;;;;;;;;6.00;6.00;;;;;-146.37;100.00;59337.28;4867041;29;46842;-82
2024/01/23 07:17:54;;;;;;;;;8.33;5.33;;;;;-146.37;100.00;59337.28;4884451;29;45347;-82
2024/01/23 07:20:20;;;;;;;;;4.33;3.33;;;;;-146.37;100.00;59337.28;4897095;28;44897;-82
2024/01/23 07:22:45;;;;;;;;;2.67;2.00;;;;;-146.37;100.00;59337.28;4895895;29;44890;-81
2024/01/23 07:25:12;;;;;;;;;7.33;3.67;;;;;-146.37;100.00;59337.28;4874934;29;47276;-82
2024/01/23 07:27:37;;;;;;;;;11.33;6.00;;;;;-146.37;100.00;59337.28;4891572;28;45285;-83
2024/01/23 07:30:04;;;;;;;;;2.00;2.00;;;;;-146.37;100.00;59337.28;4898326;29;45468;-82
2024/01/23 07:32:30;;;;;;;;;4.33;3.00;;;;;-146.37;100.00;59337.28;4891048;29;45653;-83
2024/01/23 07:34:56;;;;;;;;;7.00;7.00;;;;;-146.37;100.00;59337.28;4888521;29;65594;-82
2024/01/23 07:37:21;;;;;;;;;6.00;4.00;;;;;-146.37;100.00;59337.28;4884831;29;44888;-82
2024/01/23 07:39:49;;;;;;;;;3.67;3.00;;;;;-146.37;100.00;59337.28;4886697;28;45923;-82
2024/01/23 07:42:14;;;;;;;;;5.33;5.33;;;;;-146.37;100.00;59337.28;4887645;28;45456;-82
2024/01/23 07:44:40;;;;;;;;;3.00;3.00;;;;;-146.37;100.00;59337.28;4870306;29;47076;-83
2024/01/23 07:47:06;;;;;;;;;3.00;2.67;;;;;-146.37;100.00;59337.28;4892237;29;45467;-84
2024/01/23 07:49:32;;;;;;;;;4.67;3.33;;;;;-146.37;100.00;59337.28;4874362;29;45402;-82
2024/01/23 07:51:57;;;;;;;;;7.00;3.67;;;;;-146.37;100.00;59337.28;4881598;28;44956;-82
2024/01/23 07:54:23;;;;;;;;;7.00;7.00;;;;;-146.37;100.00;59337.28;4877811;29;46964;-82
2024/01/23 08:00:12;;;;;;;;;7.00;6.00;;;;;-146.37;100.00;59337.28;4898362;29;45334;-82
2024/01/23 08:02:38;;;;;;;;;4.67;4.00;;;;;-146.37;100.00;59337.28;4893792;29;44862;-81
2024/01/23 08:05:03;;;;;;;;;8.67;4.67;;;;;-146.37;100.00;59337.28;4873188;29;45634;-82
2024/01/23 08:07:30;;;;;;;;;4.00;3.67;;;;;-146.37;100.00;59337.28;4883257;29;45473;-81
2024/01/23 08:09:55;;;;;;;;;3.33;1.67;;;;;-146.37;100.00;59337.28;4873836;29;44959;-82
2024/01/23 08:12:22;;;;;;;;;6.00;4.00;;;;;-146.37;100.00;59337.28;4863110;29;45407;-82
2024/01/23 08:14:48;;;;;;;;;7.00;7.00;;;;;-146.37;100.00;59337.28;4865055;29;47048;-82
2024/01/23 08:17:18;;;;;;;;;7.00;7.00;;;;;-146.37;100.00;59337.28;4878588;29;45401;-81
2024/01/23 08:19:44;;;;;;;;;8.00;7.67;;;;;-146.37;100.00;59337.28;4859772;29;45638;-81
2024/01/23 08:22:10;;;;;;;;;8.00;6.00;;;;;-146.37;100.00;59337.28;4861992;29;45590;-82
2024/01/23 08:28:13;;;;;;;;;;;;;;;;;;;;;
2024/01/23 08:31:02;;;;;;;;;8.33;5.33;;;;;-146.37;100.00;59337.28;4862266;29;69288;-84
2024/01/23 08:33:31;;;;;;;;;8.67;7.67;;;;;-146.37;100.00;59337.28;4858368;29;45503;-82
2024/01/23 08:35:57;;;;;;;;;8.33;7.00;;;;;-146.37;100.00;59337.28;4853902;29;48011;-82
2024/01/23 08:38:24;;;;;;;;;9.00;9.00;;;;;-146.37;100.00;59337.28;4858294;29;45465;-82
2024/01/23 08:40:49;;;;;;;;;11.67;7.67;;;;;-146.37;100.00;59337.28;4856379;29;45505;-82
2024/01/23 08:43:16;;;;;;;;;11.00;8.67;;;;;-146.37;100.00;59337.28;4854586;29;45488;-82
2024/01/23 08:45:41;;;;;;;;;8.00;7.00;;;;;-146.37;100.00;59337.28;4851738;29;45572;-82
2024/01/23 08:48:10;;;;;;;;;8.67;7.67;;;;;-146.37;100.00;59337.28;4874399;29;45532;-82
2024/01/23 08:50:37;;;;;;;;;8.67;8.33;;;;;-146.37;100.00;59337.28;4864175;29;46708;-82
2024/01/23 08:53:03;;;;;;;;;9.67;7.00;;;;;-146.37;100.00;59337.28;4859173;29;45418;-83
2024/01/23 08:55:34;;;;;;;;;7.67;7.33;;;;;-146.37;100.00;59337.28;4877687;29;45155;-82
2024/01/23 08:58:00;;;;;;;;;10.00;7.33;;;;;-146.37;100.00;59337.28;4864128;29;45988;-83
2024/01/23 09:00:25;;;;;;;;;11.00;5.67;;;;;-146.37;100.00;59337.28;4857244;29;45614;-83
2024/01/23 09:02:51;;;;;;;;;11.67;8.33;;;;;-146.37;100.00;59337.28;4867600;29;45602;-83
2024/01/23 09:05:17;;;;;;;;;6.33;6.33;;;;;-146.37;100.00;59337.28;4867940;29;48156;-83
2024/01/23 09:07:42;;;;;;;;;14.00;7.67;;;;;-146.37;100.00;59337.28;4869853;29;45491;-83
2024/01/23 09:10:09;;;;;;;;;7.33;5.67;;;;;-146.37;100.00;59337.28;4875392;28;45486;-83
2024/01/23 09:12:37;;;;;;;;;7.67;6.67;;;;;-146.37;100.00;59337.28;4886797;29;45378;-83
2024/01/23 09:15:41;;;;;;;;;10.00;7.33;;;;;-146.37;100.00;59337.28;4873820;29;47401;-82
2024/01/23 09:18:10;;;;;;;;;10.67;7.67;;;;;-146.37;100.00;59337.28;4882930;28;45342;-81
2024/01/23 09:20:35;;;;;;;;;9.00;7.67;;;;;-146.37;100.00;59337.28;4877644;29;45486;-81
2024/01/23 09:23:01;;;;;;;;;3.67;3.67;;;;;-146.37;100.00;59337.28;4875926;28;45831;-81
2024/01/23 09:25:26;;;;;;;;;8.00;4.67;;;;;-146.37;100.00;59337.28;4875504;28;46808;-82
2024/01/23 09:27:59;;;;;;;;;9.67;7.00;;;;;-146.37;100.00;59337.28;4854024;29;46087;-81
2024/01/23 09:46:05;;;;;;;;;3.00;3.00;;;;;-146.37;100.00;59337.28;4792155;26;45257;-82
2024/01/23 09:48:31;;;;;;;;;5.33;5.00;;;;;-146.37;100.00;59337.28;4865721;29;45472;-82
2024/01/23 09:50:59;;;;;;;;;6.33;6.33;;;;;-146.37;100.00;59337.28;4852865;29;45463;-81
2024/01/23 09:53:26;;;;;;;;;9.00;4.00;;;;;-146.37;100.00;59337.28;4855484;29;45533;-81
2024/01/23 09:56:47;;;;;;;;;7.67;4.67;;;;;-146.37;100.00;59337.28;4873240;29;47311;-82
2024/01/23 09:59:29;;;;;;;;;;;;;;;;;;;;;
2024/01/23 10:07:23;;;;;;;;;9.33;9.00;;;;;-146.37;100.00;59337.28;3674783;23;45745;-81
2024/01/23 10:09:49;;;;;;;;;10.33;9.00;;;;;-146.37;100.00;59337.28;4871805;29;45475;-83
2024/01/23 10:12:15;;;;;;;;;11.33;8.33;;;;;-146.37;100.00;59337.28;4881341;29;44893;-81
2024/01/23 10:14:45;;;;;;;;;8.67;5.33;;;;;-146.37;100.00;59337.28;4885256;29;44927;-82
2024/01/23 10:17:14;;;;;;;;;7.67;6.33;;;;;-146.37;100.00;59337.28;4864344;29;47294;-81
2024/01/23 10:19:43;;;;;;;;;9.67;7.67;;;;;-146.37;100.00;59337.28;4860238;29;45506;-81
2024/01/23 10:22:12;;;;;;;;;6.33;6.33;;;;;-146.37;100.00;59337.28;4846239;29;45209;-82
2024/01/23 10:24:37;;;;;;;;;10.00;9.00;;;;;-146.37;100.00;59337.28;4848113;29;45448;-81
2024/01/23 10:27:03;;;;;;;;;11.33;8.00;;;;;-146.37;100.00;59337.28;4863579;28;46684;-79
2024/01/23 10:29:30;;;;;;;;;8.67;7.67;;;;;-146.37;100.00;59337.28;4868203;29;45532;-80
2024/01/23 10:31:56;;;;;;;;;11.00;9.33;;;;;-146.37;100.00;59337.28;4850317;29;45411;-82
2024/01/23 10:34:23;;;;;;;;;6.67;6.00;;;;;-146.37;100.00;59337.28;4864230;29;45430;-82
2024/01/23 10:37:01;;;;;;;;;11.50;4.00;;;;;-146.37;100.00;59337.28;4848961;29;48405;-83
2024/01/23 10:39:29;;;;;;;;;5.33;4.33;;;;;-146.37;100.00;59337.28;4862834;29;44839;-83
2024/01/23 10:42:02;;;;;;;;;14.00;8.33;;;;;-146.37;100.00;59337.28;4844176;29;45459;-83
2024/01/23 10:44:30;;;;;;;;;7.67;7.67;;;;;-146.37;100.00;59337.28;4842149;29;45655;-82
2024/01/23 10:46:56;;;;;;;;;9.67;8.00;;;;;-146.37;100.00;59337.28;4846567;29;46192;-82
2024/01/23 10:49:22;;;;;;;;;8.33;8.33;;;;;-146.37;100.00;59337.28;4848432;29;45773;-80
2024/01/23 10:51:52;;;;;;;;;11.00;7.67;;;;;-146.37;100.00;59337.28;4837784;29;45436;-82
2024/01/23 10:57:43;;;;;;;;;8.67;5.33;;;;;-146.37;100.00;59337.28;4851966;29;45765;-82
2024/01/23 11:00:13;;;;;;;;;8.67;6.33;;;;;-146.37;100.00;59337.28;4852041;29;45638;-81
2024/01/23 11:02:53;;;;;;;;;9.33;7.00;;;;;-146.37;100.00;59337.28;4851782;29;45583;-83
2024/01/23 11:05:30;;;;;;;;;8.67;6.67;;;;;-146.37;100.00;59337.28;4847338;29;45502;-82
2024/01/23 11:08:01;;;;;;;;;11.33;9.00;;;;;-146.37;100.00;59337.28;4854445;29;45254;-84
2024/01/23 11:10:49;;;;;;;;;8.33;7.00;;;;;-146.37;100.00;59337.28;4852992;29;45049;-82
2024/01/23 11:13:38;;;;;;;;;9.00;7.67;;;;;-146.37;100.00;59337.28;4866580;29;45450;-83
2024/01/23 11:16:05;;;;;;;;;13.00;9.00;;;;;-146.37;100.00;59337.28;4868095;29;45568;-83
2024/01/23 11:18:32;;;;;;;;;13.00;6.67;;;;;-146.37;100.00;59337.28;4857617;29;45592;-81
2024/01/23 11:21:08;;;;;;;;;12.33;11.67;;;;;-146.37;100.00;59337.28;4873442;29;44770;-82
2024/01/23 11:23:46;;;;;;;;;8.00;7.00;;;;;-146.37;100.00;59337.28;4876673;28;44781;-84
2024/01/23 11:26:22;;;;;;;;;9.33;6.67;;;;;-146.37;100.00;59337.28;4844342;29;44843;-83
2024/01/23 11:28:51;;;;;;;;;8.33;7.33;;;;;-146.37;100.00;59337.28;4851975;29;47189;-83
2024/01/23 11:31:28;;;;;;;;;12.33;10.00;;;;;-146.37;100.00;59337.28;4871981;29;45383;-83
2024/01/23 11:34:29;;;;;;;;;16.67;15.33;;;;;-146.37;100.00;59337.28;4869388;29;44885;-83
2024/01/23 11:36:55;;;;;;;;;10.67;10.33;;;;;-146.37;100.00;59337.28;4863435;29;45312;-83
2024/01/23 11:39:25;;;;;;;;;8.67;7.00;;;;;-146.37;100.00;59337.28;4856324;29;45829;-83
2024/01/23 11:41:55;;;;;;;;;10.00;8.33;;;;;-146.37;100.00;59337.28;4860167;29;45548;-83
2024/01/23 11:44:23;;;;;;;;;15.00;10.00;;;;;-146.37;100.00;59337.28;4870137;29;45431;-83
2024/01/23 11:46:49;;;;;;;;;8.67;8.67;;;;;-146.37;100.00;59337.28;4858976;29;44986;-84
2024/01/23 11:49:15;;;;;;;;;12.33;8.00;;;;;-146.37;100.00;59337.28;4858002;29;45440;-82
2024/01/23 11:51:42;;;;;;;;;9.00;6.00;;;;;-146.37;100.00;59337.28;4871905;29;45517;-83
2024/01/23 11:54:11;;;;;;;;;6.00;6.00;;;;;-146.37;100.00;59337.28;4853700;29;44846;-83